Latest Weather Observations for Kiama

IDN60801

Issued at 1:03 pm EST Thursday 18 July 2019 (issued every 10 minutes, with the page automatically refreshed every 10 minutes)

About weather observations | Map of weather stations | Latest weather observations for NSW | Other Formats
Station Details ID: 068242 Name: KIAMA (BOMBO HEADLAND) Lat: -34.65 Lon: 150.86 Height: 15.5 m
Data from the previous 72 hours. | See also: Recent months at Kiama
Date/Time
EST
Temp
°C
App
Temp
°C
Dew
Point
°C
Rel
Hum
%
Delta-T
°C
Wind Press
QNH
hPa
Press
MSL
hPa
Rain since
9am
mm
Dir  Spd
km/h
Gust
km/h
Spd
kts
Gust
kts
18/01:00pm 17.9 12.6 -0.8 28 8.0 SW 17 24 9 13 - - 0.0
18/12:30pm 17.2 12.7 -0.1 31 7.4 SW 13 20 7 11 - - 0.0
18/12:00pm 17.4 13.3 -0.3 30 7.6 WSW 11 20 6 11 - - 0.0
18/11:30am 16.4 11.5 -0.8 31 7.2 SW 15 24 8 13 - - 0.0
18/11:00am 16.9 13.0 1.0 34 7.0 SW 11 20 6 11 - - 0.0
18/10:30am 16.4 11.2 0.1 33 7.0 WSW 17 30 9 16 - - 0.0
18/10:00am 15.9 10.1 -0.3 33 6.9 SW 20 35 11 19 - - 0.0
18/09:30am 15.7 10.6 0.7 36 6.5 WSW 17 26 9 14 - - 0.0
18/09:00am 15.2 9.8 1.0 38 6.1 WSW 19 30 10 16 - - 0.0
18/08:30am 14.6 9.2 1.5 41 5.7 W 19 35 10 19 - - 0.0
18/08:00am 13.8 9.6 1.8 44 5.2 WSW 13 26 7 14 - - 0.0
18/07:30am 13.4 7.2 2.3 47 4.9 WSW 24 39 13 21 - - 0.0
18/07:00am 13.1 7.9 2.6 49 4.6 WSW 19 35 10 19 - - 0.0
18/06:30am 12.9 9.0 3.3 52 4.3 W 13 35 7 19 - - 0.0
18/06:00am 13.1 7.9 3.5 52 4.3 WSW 20 35 11 19 - - 0.0
18/05:30am 13.1 8.8 3.5 52 4.3 WNW 15 33 8 18 - - 0.0
18/05:00am 13.2 8.2 3.6 52 4.3 W 19 44 10 24 - - 0.0
18/04:30am 13.1 8.5 3.7 53 4.2 WNW 17 39 9 21 - - 0.0
18/04:00am 12.6 9.1 3.6 54 4.0 WNW 11 20 6 11 - - 0.0
18/03:30am 12.9 9.0 3.6 53 4.2 WNW 13 24 7 13 - - 0.0
18/03:00am 13.0 8.3 3.4 52 4.3 NNW 17 28 9 15 - - 0.0
18/02:30am 13.1 9.2 3.5 52 4.3 WNW 13 32 7 17 - - 0.0
18/02:00am 13.2 8.0 3.6 52 4.3 W 20 43 11 23 - - 0.0
18/01:30am 13.2 6.5 3.6 52 4.3 WSW 28 57 15 31 - - 0.0
18/01:00am 13.1 6.3 3.2 51 4.4 WSW 28 57 15 31 - - 0.0
18/12:30am 13.3 5.2 3.1 50 4.5 WSW 35 54 19 29 - - 0.0
18/12:00am 13.3 4.4 3.1 50 4.5 WSW 39 72 21 39 - - 0.0
 
Date/Time
EST
Temp
°C
App
Temp
°C
Dew
Point
°C
Rel
Hum
%
Delta-T
°C
Wind Press
QNH
hPa
Press
MSL
hPa
Rain since
9am
mm
Dir  Spd
km/h
Gust
km/h
Spd
kts
Gust
kts
17/11:32pm 13.5 4.2 3.0 49 4.7 WSW 41 61 22 33 - - 0.0
17/11:30pm 13.4 4.1 2.9 49 4.7 WSW 41 57 22 31 - - 0.0
17/11:11pm 13.2 6.3 2.7 49 4.6 WSW 28 48 15 26 - - 0.0
17/11:00pm 13.1 8.0 2.9 50 4.5 WSW 19 35 10 19 - - 0.0
17/10:30pm 13.0 7.8 2.3 48 4.7 W 19 32 10 17 - - 0.0
17/10:00pm 13.1 9.0 2.1 47 4.8 WSW 13 20 7 11 - - 0.0
17/09:30pm 13.3 8.0 1.9 46 4.9 WSW 19 32 10 17 - - 0.0
17/09:00pm 13.2 9.0 1.5 45 5.0 WSW 13 24 7 13 - - 0.0
17/08:30pm 13.6 8.3 1.9 45 5.1 WSW 19 35 10 19 - - 0.0
17/08:00pm 13.5 7.5 1.2 43 5.3 SW 22 39 12 21 - - 0.0
17/07:30pm 13.6 6.1 0.9 42 5.4 SW 30 54 16 29 - - 0.0
17/07:11pm 13.5 5.5 1.8 45 5.1 SW 33 54 18 29 - - 0.0
17/07:00pm 13.5 8.0 1.8 45 5.1 WSW 20 35 11 19 - - 0.0
17/06:30pm 13.6 6.2 1.6 44 5.2 WSW 30 50 16 27 - - 0.0
17/06:03pm 13.9 6.9 1.9 44 5.2 WSW 28 48 15 26 - - 0.0
17/06:00pm 14.0 7.8 2.3 45 5.1 SW 24 39 13 21 - - 0.0
17/05:30pm 14.5 9.2 1.8 42 5.6 W 19 32 10 17 - - 0.0
17/05:00pm 14.9 11.0 1.4 40 5.9 W 11 24 6 13 - - 0.0
17/04:30pm 15.8 12.0 1.9 39 6.2 WNW 11 24 6 13 - - 0.0
17/04:00pm 17.2 14.4 2.0 36 6.8 WNW 6 13 3 7 - - 0.0
17/03:30pm 17.4 13.2 1.8 35 7.0 WNW 13 20 7 11 - - 0.0
17/03:00pm 18.1 14.9 3.2 37 6.9 W 9 20 5 11 - - 0.0
17/02:30pm 18.7 15.5 3.3 36 7.2 W 9 17 5 9 - - 0.0
17/02:00pm 18.6 15.3 2.4 34 7.4 W 9 20 5 11 - - 0.0
17/01:30pm 18.5 15.6 2.4 34 7.4 WNW 7 20 4 11 - - 0.0
17/01:00pm 18.6 15.8 3.3 36 7.1 NW 7 15 4 8 - - 0.0
17/12:30pm 18.2 14.4 3.7 38 6.8 W 13 28 7 15 - - 0.0
17/12:00pm 17.7 12.8 3.9 40 6.5 W 19 28 10 15 - - 0.0
17/11:30am 17.2 12.2 4.5 43 6.0 WSW 20 28 11 15 - - 0.0
17/11:00am 16.8 12.0 4.5 44 5.8 WSW 19 30 10 16 - - 0.0
17/10:30am 16.3 11.5 4.7 46 5.5 WSW 19 30 10 16 - - 0.0
17/10:00am 15.5 10.1 4.3 47 5.2 WSW 22 32 12 17 - - 0.0
17/09:30am 14.6 8.3 4.0 49 4.9 WSW 26 37 14 20 - - 0.0
17/09:00am 13.9 8.0 3.7 50 4.6 W 24 37 13 20 - - 0.0
17/08:30am 13.3 7.3 3.4 51 4.4 W 24 41 13 22 - - 0.0
17/08:00am 12.5 6.2 3.5 54 4.0 WSW 26 43 14 23 - - 0.0
17/07:30am 12.1 6.1 3.6 56 3.8 WSW 24 35 13 19 - - 0.0
17/07:00am 12.0 5.7 3.5 56 3.8 WSW 26 37 14 20 - - 0.0
17/06:30am 11.7 6.7 3.7 58 3.6 W 19 33 10 18 - - 0.0
17/06:00am 12.0 6.5 3.8 57 3.7 W 22 35 12 19 - - 0.0
17/05:30am 12.0 5.3 3.8 57 3.7 W 28 43 15 23 - - 0.0
17/05:00am 12.1 7.0 3.9 57 3.7 W 20 37 11 20 - - 0.0
17/04:30am 12.4 6.5 4.1 57 3.7 W 24 43 13 23 - - 0.0
17/04:00am 12.6 6.8 4.3 57 3.8 W 24 37 13 20 - - 0.0
17/03:30am 12.6 6.5 4.6 58 3.7 WSW 26 43 14 23 - - 0.0
17/03:00am 12.5 7.1 4.7 59 3.6 W 22 39 12 21 - - 0.0
17/02:30am 12.6 7.3 5.1 60 3.5 W 22 37 12 20 - - 0.0
17/02:00am 12.6 6.2 5.1 60 3.5 WSW 28 39 15 21 - - 0.0
17/01:30am 12.7 7.8 4.9 59 3.6 W 20 35 11 19 - - 0.0
17/01:00am 13.3 7.9 4.5 55 4.0 W 22 32 12 17 - - 0.0
17/12:30am 13.5 6.9 4.4 54 4.2 WSW 28 37 15 20 - - 0.0
17/12:00am 13.2 7.1 4.6 56 3.9 WSW 26 39 14 21 - - 0.0
 
Date/Time
EST
Temp
°C
App
Temp
°C
Dew
Point
°C
Rel
Hum
%
Delta-T
°C
Wind Press
QNH
hPa
Press
MSL
hPa
Rain since
9am
mm
Dir  Spd
km/h
Gust
km/h
Spd
kts
Gust
kts
16/11:30pm 12.9 7.1 4.6 57 3.8 W 24 37 13 20 - - 0.0
16/11:00pm 13.0 7.3 4.7 57 3.8 W 24 33 13 18 - - 0.0
16/10:30pm 13.2 7.1 4.6 56 3.9 WSW 26 39 14 21 - - 0.0
16/10:00pm 13.4 7.6 4.6 55 4.0 WSW 24 39 13 21 - - 0.0
16/09:30pm 13.5 7.3 4.4 54 4.2 WSW 26 43 14 23 - - 0.0
16/09:00pm 13.7 6.4 4.3 53 4.3 WSW 32 46 17 25 - - 0.0
16/08:30pm 13.9 6.9 4.2 52 4.4 WSW 30 43 16 23 - - 0.0
16/08:00pm 13.9 7.3 4.2 52 4.4 WSW 28 43 15 23 - - 0.0
16/07:30pm 14.1 7.5 4.1 51 4.6 WSW 28 41 15 22 - - 0.0
16/07:00pm 13.9 7.6 3.7 50 4.6 WSW 26 37 14 20 - - 0.0
16/06:30pm 14.2 7.1 3.7 49 4.8 WSW 30 44 16 24 - - 0.0
16/06:00pm 14.5 7.7 3.3 47 5.1 WSW 28 41 15 22 - - 0.0
16/05:30pm 14.9 7.8 3.4 46 5.2 WSW 30 43 16 23 - - 0.0
16/05:00pm 15.3 9.4 3.8 46 5.3 WSW 24 37 13 20 - - 0.0
16/04:30pm 16.3 9.6 3.4 42 5.9 WSW 28 43 15 23 - - 0.0
16/04:00pm 17.2 11.7 3.8 41 6.2 WSW 22 35 12 19 - - 0.0
16/03:30pm 17.9 12.4 3.8 39 6.6 WSW 22 35 12 19 - - 0.0
16/03:00pm 18.6 13.6 3.6 37 7.0 WSW 19 32 10 17 - - 0.0
16/02:30pm 18.8 14.2 3.8 37 7.1 WSW 17 26 9 14 - - 0.0
16/02:00pm 19.4 14.4 3.6 35 7.5 WSW 19 28 10 15 - - 0.0
16/01:30pm 20.0 16.2 4.1 35 7.6 WSW 13 20 7 11 - - 0.0
16/01:00pm 19.4 14.3 3.2 34 7.6 W 19 32 10 17 - - 0.0
16/12:30pm 19.1 14.6 4.1 37 7.1 WSW 17 24 9 13 - - 0.0
16/12:00pm 18.5 13.1 4.3 39 6.8 WSW 22 30 12 16 - - 0.0
16/11:30am 17.8 11.9 4.0 40 6.5 WSW 24 35 13 19 - - 0.0
16/11:00am 17.5 12.1 4.5 42 6.2 WSW 22 33 12 18 - - 0.0
16/10:30am 16.9 11.3 3.6 41 6.2 W 22 35 12 19 - - 0.0
16/10:00am 16.8 12.5 5.4 47 5.5 W 17 28 9 15 - - 0.0
16/09:30am 15.6 9.4 4.3 47 5.3 WSW 26 37 14 20 - - 0.0
16/09:00am 14.7 7.2 3.5 47 5.1 WSW 32 43 17 23 - - 0.0
16/08:30am 13.8 6.0 2.7 47 4.9 WSW 33 46 18 25 - - 0.0
16/08:00am 13.1 5.2 2.1 47 4.8 WSW 33 52 18 28 - - 0.0
16/07:57am 13.2 5.5 2.1 47 4.8 WSW 32 52 17 28 - - 0.0
16/07:30am 12.8 5.4 1.8 47 4.7 WSW 30 43 16 23 - - 0.0
16/07:00am 12.7 5.3 1.7 47 4.7 W 30 43 16 23 - - 0.0
16/06:30am 12.5 5.8 1.5 47 4.7 W 26 39 14 21 - - 0.0
16/06:00am 12.5 5.4 1.5 47 4.7 W 28 41 15 22 - - 0.0
16/05:30am 12.4 5.3 1.4 47 4.7 WNW 28 39 15 21 - - 0.0
16/05:00am 12.7 4.9 1.7 47 4.7 WNW 32 43 17 23 - - 0.0
16/04:30am 12.5 5.8 1.5 47 4.7 WNW 26 37 14 20 - - 0.0
16/04:00am 12.4 6.1 1.4 47 4.7 WNW 24 39 13 21 - - 0.0
16/03:30am 12.8 6.2 1.8 47 4.7 WNW 26 41 14 22 - - 0.0
16/03:00am 13.0 7.1 2.0 47 4.8 W 22 39 12 21 - - 0.0
16/02:30am 12.7 6.4 1.7 47 4.7 WNW 24 35 13 19 - - 0.0
16/02:00am 12.5 6.2 1.5 47 4.7 WNW 24 37 13 20 - - 0.0
16/01:30am 12.8 6.9 1.8 47 4.7 W 22 33 12 18 - - 0.0
16/01:00am 12.7 6.8 1.7 47 4.7 W 22 35 12 19 - - 0.0
16/12:30am 12.6 6.3 1.6 47 4.7 W 24 39 13 21 - - 0.0
16/12:00am 12.3 6.3 1.3 47 4.7 WNW 22 35 12 19 - - 0.0
 
Date/Time
EST
Temp
°C
App
Temp
°C
Dew
Point
°C
Rel
Hum
%
Delta-T
°C
Wind Press
QNH
hPa
Press
MSL
hPa
Rain since
9am
mm
Dir  Spd
km/h
Gust
km/h
Spd
kts
Gust
kts
15/11:30pm 12.4 6.5 1.4 47 4.7 WNW 22 30 12 16 - - 0.0
15/11:00pm 12.4 6.1 1.4 47 4.7 WNW 24 37 13 20 - - 0.0
15/10:30pm 12.7 6.4 1.7 47 4.7 W 24 44 13 24 - - 0.0
15/10:00pm 12.6 6.3 1.6 47 4.7 WNW 24 35 13 19 - - 0.0
15/09:30pm 12.4 6.8 1.4 47 4.7 WNW 20 33 11 18 - - 0.0
15/09:00pm 12.6 7.1 1.6 47 4.7 WNW 20 32 11 17 - - 0.0
15/08:30pm 12.6 7.6 1.6 47 4.7 W 17 28 9 15 - - 0.0
15/08:00pm 12.6 8.0 1.6 47 4.7 W 15 30 8 16 - - 0.0
15/07:30pm 12.8 7.5 1.8 47 4.7 WSW 19 28 10 15 - - 0.0
15/07:00pm 12.9 7.4 1.9 47 4.7 W 20 39 11 21 - - 0.0
15/06:30pm 13.1 7.8 2.1 47 4.8 WSW 19 33 10 18 - - 0.0
15/06:00pm 13.5 8.3 2.4 47 4.9 WSW 19 32 10 17 - - 0.0
15/05:30pm 13.9 8.6 2.8 47 4.9 WSW 20 33 11 18 - - 0.0
15/05:00pm 14.2 9.1 3.1 47 5.0 WSW 19 26 10 14 - - 0.0
15/04:30pm 15.2 10.3 4.0 47 5.2 WSW 19 30 10 16 - - 0.0
15/04:00pm 15.8 11.4 4.5 47 5.3 WSW 17 33 9 18 - - 0.0
15/03:30pm 16.4 12.1 5.1 47 5.4 WSW 17 26 9 14 - - 0.0
15/03:00pm 16.7 11.5 5.3 47 5.5 WSW 22 33 12 18 - - 0.0
15/02:30pm 16.9 12.7 5.5 47 5.5 WSW 17 30 9 16 - - 0.0
15/02:00pm 16.6 12.3 5.3 47 5.4 SSW 17 30 9 16 - - 0.0
15/01:30pm 16.4 12.1 5.1 47 5.4 SSW 17 30 9 16 - - 0.0

Other formats

Comma delimited format used in spreadsheet applications
http://www.bom.gov.au/fwo/IDN60801/IDN60801.95749.axf

JavaScript Object Notation format (JSON) in row-major order
http://www.bom.gov.au/fwo/IDN60801/IDN60801.95749.json

Data quality

Most of these data are generated automatically and are frequently updated. Quality checks on data are not normally performed. It is possible for incorrect values to appear. Refer to information at About Latest Weather Observations and please check the disclaimer before using these data.